sensor_id;sensor_type;location;lat;lon;timestamp;temperature;humidity
24668;DHT22;12793;48.014;0.232;2022-10-31T00:00:54;14.10;69.60
24668;DHT22;12793;48.014;0.232;2022-10-31T00:03:20;14.10;69.70
24668;DHT22;12793;48.014;0.232;2022-10-31T00:05:46;14.10;69.80
24668;DHT22;12793;48.014;0.232;2022-10-31T00:08:12;14.10;69.90
24668;DHT22;12793;48.014;0.232;2022-10-31T00:10:38;14.10;70.10
24668;DHT22;12793;48.014;0.232;2022-10-31T00:13:04;14.10;70.40
24668;DHT22;12793;48.014;0.232;2022-10-31T00:15:30;14.10;70.40
24668;DHT22;12793;48.014;0.232;2022-10-31T00:17:55;14.10;70.50
24668;DHT22;12793;48.014;0.232;2022-10-31T00:20:21;14.10;70.60
24668;DHT22;12793;48.014;0.232;2022-10-31T00:22:46;14.00;70.70
24668;DHT22;12793;48.014;0.232;2022-10-31T00:25:12;14.00;71.00
24668;DHT22;12793;48.014;0.232;2022-10-31T00:27:37;14.10;71.20
24668;DHT22;12793;48.014;0.232;2022-10-31T00:30:03;14.00;71.40
24668;DHT22;12793;48.014;0.232;2022-10-31T00:32:29;14.00;71.50
24668;DHT22;12793;48.014;0.232;2022-10-31T00:34:55;14.00;71.60
24668;DHT22;12793;48.014;0.232;2022-10-31T00:37:21;14.00;71.60
24668;DHT22;12793;48.014;0.232;2022-10-31T00:39:46;14.00;71.60
24668;DHT22;12793;48.014;0.232;2022-10-31T00:42:14;14.00;71.50
24668;DHT22;12793;48.014;0.232;2022-10-31T00:44:40;14.00;71.40
24668;DHT22;12793;48.014;0.232;2022-10-31T00:47:06;14.00;71.40
24668;DHT22;12793;48.014;0.232;2022-10-31T00:49:31;14.00;71.30
24668;DHT22;12793;48.014;0.232;2022-10-31T00:51:57;14.00;71.20
24668;DHT22;12793;48.014;0.232;2022-10-31T00:54:22;14.00;71.10
24668;DHT22;12793;48.014;0.232;2022-10-31T00:56:48;14.10;71.20
24668;DHT22;12793;48.014;0.232;2022-10-31T00:59:13;14.00;71.10
24668;DHT22;12793;48.014;0.232;2022-10-31T01:01:39;14.10;71.10
24668;DHT22;12793;48.014;0.232;2022-10-31T01:04:05;14.00;70.90
24668;DHT22;12793;48.014;0.232;2022-10-31T01:06:31;14.10;71.10
24668;DHT22;12793;48.014;0.232;2022-10-31T01:08:57;14.00;71.00
24668;DHT22;12793;48.014;0.232;2022-10-31T01:11:22;14.00;71.10
24668;DHT22;12793;48.014;0.232;2022-10-31T01:13:52;14.10;71.20
24668;DHT22;12793;48.014;0.232;2022-10-31T01:16:19;14.10;71.30
24668;DHT22;12793;48.014;0.232;2022-10-31T01:18:44;14.00;71.40
24668;DHT22;12793;48.014;0.232;2022-10-31T01:21:12;14.00;71.40
24668;DHT22;12793;48.014;0.232;2022-10-31T01:23:38;14.00;71.40
24668;DHT22;12793;48.014;0.232;2022-10-31T01:28:32;14.10;71.50
24668;DHT22;12793;48.014;0.232;2022-10-31T01:31:01;14.10;71.50
24668;DHT22;12793;48.014;0.232;2022-10-31T01:33:27;14.10;71.60
24668;DHT22;12793;48.014;0.232;2022-10-31T01:35:53;14.10;71.60
24668;DHT22;12793;48.014;0.232;2022-10-31T01:38:18;14.10;71.70
24668;DHT22;12793;48.014;0.232;2022-10-31T01:40:44;14.10;71.80
24668;DHT22;12793;48.014;0.232;2022-10-31T01:43:13;14.20;71.80
24668;DHT22;12793;48.014;0.232;2022-10-31T01:45:39;14.20;71.90
24668;DHT22;12793;48.014;0.232;2022-10-31T01:48:06;14.20;72.00
24668;DHT22;12793;48.014;0.232;2022-10-31T01:50:37;14.20;71.90
24668;DHT22;12793;48.014;0.232;2022-10-31T01:53:03;14.20;72.00
24668;DHT22;12793;48.014;0.232;2022-10-31T01:55:32;14.20;71.90
24668;DHT22;12793;48.014;0.232;2022-10-31T01:58:00;14.20;71.90
24668;DHT22;12793;48.014;0.232;2022-10-31T02:00:27;14.20;71.80
24668;DHT22;12793;48.014;0.232;2022-10-31T02:02:53;14.30;71.90
24668;DHT22;12793;48.014;0.232;2022-10-31T02:05:24;14.30;71.80
24668;DHT22;12793;48.014;0.232;2022-10-31T02:10:16;14.30;71.70
24668;DHT22;12793;48.014;0.232;2022-10-31T02:12:42;14.30;71.60
24668;DHT22;12793;48.014;0.232;2022-10-31T02:15:09;14.30;71.60
24668;DHT22;12793;48.014;0.232;2022-10-31T02:17:36;14.30;71.60
24668;DHT22;12793;48.014;0.232;2022-10-31T02:20:09;14.30;71.70
24668;DHT22;12793;48.014;0.232;2022-10-31T02:22:53;14.30;71.80
24668;DHT22;12793;48.014;0.232;2022-10-31T02:31:16;14.40;71.70
24668;DHT22;12793;48.014;0.232;2022-10-31T02:35:54;14.40;71.80
24668;DHT22;12793;48.014;0.232;2022-10-31T02:44:09;14.40;71.80
24668;DHT22;12793;48.014;0.232;2022-10-31T02:46:42;14.40;71.80
24668;DHT22;12793;48.014;0.232;2022-10-31T02:49:11;14.40;71.80
24668;DHT22;12793;48.014;0.232;2022-10-31T02:51:40;14.40;71.90
24668;DHT22;12793;48.014;0.232;2022-10-31T02:54:15;14.40;72.00
24668;DHT22;12793;48.014;0.232;2022-10-31T02:56:41;14.40;71.90
24668;DHT22;12793;48.014;0.232;2022-10-31T02:59:06;14.50;72.00
24668;DHT22;12793;48.014;0.232;2022-10-31T03:09:08;14.50;71.80
24668;DHT22;12793;48.014;0.232;2022-10-31T03:11:45;14.50;71.80
24668;DHT22;12793;48.014;0.232;2022-10-31T03:14:14;14.50;71.80
24668;DHT22;12793;48.014;0.232;2022-10-31T03:19:08;14.50;71.70
24668;DHT22;12793;48.014;0.232;2022-10-31T03:21:40;14.50;71.60
24668;DHT22;12793;48.014;0.232;2022-10-31T03:24:07;14.50;71.60
24668;DHT22;12793;48.014;0.232;2022-10-31T03:26:34;14.40;71.40
24668;DHT22;12793;48.014;0.232;2022-10-31T03:29:07;14.40;72.10
24668;DHT22;12793;48.014;0.232;2022-10-31T03:31:40;14.40;71.50
24668;DHT22;12793;48.014;0.232;2022-10-31T03:34:07;14.30;71.50
24668;DHT22;12793;48.014;0.232;2022-10-31T03:36:34;14.30;71.60
24668;DHT22;12793;48.014;0.232;2022-10-31T03:39:01;14.30;71.70
24668;DHT22;12793;48.014;0.232;2022-10-31T03:41:28;14.30;71.70
24668;DHT22;12793;48.014;0.232;2022-10-31T03:43:55;14.30;71.80
24668;DHT22;12793;48.014;0.232;2022-10-31T03:46:22;14.30;71.80
24668;DHT22;12793;48.014;0.232;2022-10-31T03:48:48;14.30;71.90
24668;DHT22;12793;48.014;0.232;2022-10-31T03:51:37;14.30;71.80
24668;DHT22;12793;48.014;0.232;2022-10-31T03:54:13;14.20;71.80
24668;DHT22;12793;48.014;0.232;2022-10-31T03:56:46;14.20;71.80
24668;DHT22;12793;48.014;0.232;2022-10-31T03:59:14;14.30;71.90
24668;DHT22;12793;48.014;0.232;2022-10-31T04:01:44;14.20;71.80
24668;DHT22;12793;48.014;0.232;2022-10-31T04:04:11;14.30;71.80
24668;DHT22;12793;48.014;0.232;2022-10-31T04:06:38;14.20;71.70
24668;DHT22;12793;48.014;0.232;2022-10-31T04:09:06;14.20;71.70
24668;DHT22;12793;48.014;0.232;2022-10-31T04:11:34;14.20;71.60
24668;DHT22;12793;48.014;0.232;2022-10-31T04:14:00;14.20;71.60
24668;DHT22;12793;48.014;0.232;2022-10-31T04:16:27;14.20;71.60
24668;DHT22;12793;48.014;0.232;2022-10-31T04:18:52;14.10;71.50
24668;DHT22;12793;48.014;0.232;2022-10-31T04:21:18;14.20;71.50
24668;DHT22;12793;48.014;0.232;2022-10-31T04:23:43;14.20;71.50
24668;DHT22;12793;48.014;0.232;2022-10-31T04:26:12;14.10;71.40
24668;DHT22;12793;48.014;0.232;2022-10-31T04:28:38;14.10;71.50
24668;DHT22;12793;48.014;0.232;2022-10-31T04:31:03;14.10;71.50
24668;DHT22;12793;48.014;0.232;2022-10-31T04:33:29;14.00;71.30
24668;DHT22;12793;48.014;0.232;2022-10-31T04:35:54;14.00;71.40
24668;DHT22;12793;48.014;0.232;2022-10-31T04:38:20;14.00;71.50
24668;DHT22;12793;48.014;0.232;2022-10-31T04:40:45;13.90;71.50
24668;DHT22;12793;48.014;0.232;2022-10-31T04:43:11;13.90;71.60
24668;DHT22;12793;48.014;0.232;2022-10-31T04:45:37;13.90;71.60
24668;DHT22;12793;48.014;0.232;2022-10-31T04:48:02;13.90;71.60
24668;DHT22;12793;48.014;0.232;2022-10-31T04:50:28;13.80;71.50
24668;DHT22;12793;48.014;0.232;2022-10-31T04:52:54;13.80;71.50
24668;DHT22;12793;48.014;0.232;2022-10-31T04:55:19;13.80;71.60
24668;DHT22;12793;48.014;0.232;2022-10-31T04:57:46;13.90;71.60
24668;DHT22;12793;48.014;0.232;2022-10-31T05:00:13;13.90;71.60
24668;DHT22;12793;48.014;0.232;2022-10-31T05:02:42;13.80;71.40
24668;DHT22;12793;48.014;0.232;2022-10-31T05:05:08;13.70;71.30
24668;DHT22;12793;48.014;0.232;2022-10-31T05:07:37;13.70;71.30
24668;DHT22;12793;48.014;0.232;2022-10-31T05:10:03;13.70;71.30
24668;DHT22;12793;48.014;0.232;2022-10-31T05:12:28;13.60;71.20
24668;DHT22;12793;48.014;0.232;2022-10-31T05:14:54;13.60;71.30
24668;DHT22;12793;48.014;0.232;2022-10-31T05:17:19;13.50;71.30
24668;DHT22;12793;48.014;0.232;2022-10-31T05:19:45;13.50;71.30
24668;DHT22;12793;48.014;0.232;2022-10-31T05:22:10;13.40;71.30
24668;DHT22;12793;48.014;0.232;2022-10-31T05:24:36;13.40;71.40
24668;DHT22;12793;48.014;0.232;2022-10-31T05:27:02;13.40;71.40
24668;DHT22;12793;48.014;0.232;2022-10-31T05:29:27;13.40;71.50
24668;DHT22;12793;48.014;0.232;2022-10-31T05:31:53;13.40;71.60
24668;DHT22;12793;48.014;0.232;2022-10-31T05:34:18;13.40;71.60
24668;DHT22;12793;48.014;0.232;2022-10-31T05:36:44;13.40;71.50
24668;DHT22;12793;48.014;0.232;2022-10-31T05:39:09;13.40;71.60
24668;DHT22;12793;48.014;0.232;2022-10-31T05:41:36;13.30;71.60
24668;DHT22;12793;48.014;0.232;2022-10-31T05:44:01;13.30;71.70
24668;DHT22;12793;48.014;0.232;2022-10-31T05:46:27;13.30;71.70
24668;DHT22;12793;48.014;0.232;2022-10-31T05:48:52;13.30;71.60
24668;DHT22;12793;48.014;0.232;2022-10-31T05:51:18;13.30;71.70
24668;DHT22;12793;48.014;0.232;2022-10-31T05:53:45;13.30;71.80
24668;DHT22;12793;48.014;0.232;2022-10-31T05:56:11;13.30;71.80
24668;DHT22;12793;48.014;0.232;2022-10-31T05:58:36;13.40;72.00
24668;DHT22;12793;48.014;0.232;2022-10-31T06:01:02;13.40;72.00
24668;DHT22;12793;48.014;0.232;2022-10-31T06:03:27;13.40;72.10
24668;DHT22;12793;48.014;0.232;2022-10-31T06:05:53;13.40;72.20
24668;DHT22;12793;48.014;0.232;2022-10-31T06:08:18;13.40;72.20
24668;DHT22;12793;48.014;0.232;2022-10-31T06:10:44;13.40;72.30
24668;DHT22;12793;48.014;0.232;2022-10-31T06:13:10;13.40;72.50
24668;DHT22;12793;48.014;0.232;2022-10-31T06:15:36;13.50;72.60
24668;DHT22;12793;48.014;0.232;2022-10-31T06:18:02;13.50;72.70
24668;DHT22;12793;48.014;0.232;2022-10-31T06:20:28;13.50;72.90
24668;DHT22;12793;48.014;0.232;2022-10-31T06:22:54;13.60;73.00
24668;DHT22;12793;48.014;0.232;2022-10-31T06:25:19;13.60;73.40
24668;DHT22;12793;48.014;0.232;2022-10-31T06:27:45;13.60;73.50
24668;DHT22;12793;48.014;0.232;2022-10-31T06:30:11;13.70;73.70
24668;DHT22;12793;48.014;0.232;2022-10-31T06:32:36;13.80;73.90
24668;DHT22;12793;48.014;0.232;2022-10-31T06:35:02;13.80;73.90
24668;DHT22;12793;48.014;0.232;2022-10-31T06:37:27;13.80;73.90
24668;DHT22;12793;48.014;0.232;2022-10-31T06:39:53;13.90;74.10
24668;DHT22;12793;48.014;0.232;2022-10-31T06:42:18;13.90;74.00
24668;DHT22;12793;48.014;0.232;2022-10-31T06:44:44;13.90;74.00
24668;DHT22;12793;48.014;0.232;2022-10-31T06:47:10;13.90;74.10
24668;DHT22;12793;48.014;0.232;2022-10-31T06:49:36;14.00;74.10
24668;DHT22;12793;48.014;0.232;2022-10-31T06:52:02;14.00;74.00
24668;DHT22;12793;48.014;0.232;2022-10-31T06:54:27;14.00;73.90
24668;DHT22;12793;48.014;0.232;2022-10-31T06:56:53;14.00;73.90
24668;DHT22;12793;48.014;0.232;2022-10-31T06:59:19;14.10;73.90
24668;DHT22;12793;48.014;0.232;2022-10-31T07:01:44;14.10;73.90
24668;DHT22;12793;48.014;0.232;2022-10-31T07:04:10;14.10;73.80
24668;DHT22;12793;48.014;0.232;2022-10-31T07:06:36;14.20;73.80
24668;DHT22;12793;48.014;0.232;2022-10-31T07:09:02;14.20;73.80
24668;DHT22;12793;48.014;0.232;2022-10-31T07:11:27;14.20;73.80
24668;DHT22;12793;48.014;0.232;2022-10-31T07:13:53;14.20;73.80
24668;DHT22;12793;48.014;0.232;2022-10-31T07:16:18;14.30;73.90
24668;DHT22;12793;48.014;0.232;2022-10-31T07:18:44;14.30;73.70
24668;DHT22;12793;48.014;0.232;2022-10-31T07:21:10;14.30;73.70
24668;DHT22;12793;48.014;0.232;2022-10-31T07:23:36;14.30;73.70
24668;DHT22;12793;48.014;0.232;2022-10-31T07:26:02;14.30;73.60
24668;DHT22;12793;48.014;0.232;2022-10-31T07:28:28;14.40;73.50
24668;DHT22;12793;48.014;0.232;2022-10-31T07:30:54;14.40;73.40
24668;DHT22;12793;48.014;0.232;2022-10-31T07:33:20;14.40;73.40
24668;DHT22;12793;48.014;0.232;2022-10-31T07:35:45;14.40;73.30
24668;DHT22;12793;48.014;0.232;2022-10-31T07:38:11;14.40;73.30
24668;DHT22;12793;48.014;0.232;2022-10-31T07:40:37;14.40;73.30
24668;DHT22;12793;48.014;0.232;2022-10-31T07:43:03;14.40;73.30
24668;DHT22;12793;48.014;0.232;2022-10-31T07:45:29;14.40;73.30
24668;DHT22;12793;48.014;0.232;2022-10-31T07:47:55;14.50;73.30
24668;DHT22;12793;48.014;0.232;2022-10-31T07:50:21;14.50;73.30
24668;DHT22;12793;48.014;0.232;2022-10-31T07:52:47;14.50;73.20
24668;DHT22;12793;48.014;0.232;2022-10-31T07:55:12;14.60;73.30
24668;DHT22;12793;48.014;0.232;2022-10-31T07:57:38;14.60;73.20
24668;DHT22;12793;48.014;0.232;2022-10-31T08:00:04;14.60;73.10
24668;DHT22;12793;48.014;0.232;2022-10-31T08:02:30;14.70;73.10
24668;DHT22;12793;48.014;0.232;2022-10-31T08:04:55;14.80;73.10
24668;DHT22;12793;48.014;0.232;2022-10-31T08:07:21;14.80;73.00
24668;DHT22;12793;48.014;0.232;2022-10-31T08:09:47;14.90;73.00
24668;DHT22;12793;48.014;0.232;2022-10-31T08:12:12;14.90;72.90
24668;DHT22;12793;48.014;0.232;2022-10-31T08:14:38;14.90;72.90
24668;DHT22;12793;48.014;0.232;2022-10-31T08:17:03;15.00;72.80
24668;DHT22;12793;48.014;0.232;2022-10-31T08:19:29;15.00;72.70
24668;DHT22;12793;48.014;0.232;2022-10-31T08:21:54;15.10;72.70
24668;DHT22;12793;48.014;0.232;2022-10-31T08:24:21;15.10;72.70
24668;DHT22;12793;48.014;0.232;2022-10-31T08:26:46;15.10;72.60
24668;DHT22;12793;48.014;0.232;2022-10-31T08:29:12;15.20;72.60
24668;DHT22;12793;48.014;0.232;2022-10-31T08:31:38;15.20;72.50
24668;DHT22;12793;48.014;0.232;2022-10-31T08:34:03;15.30;72.40
24668;DHT22;12793;48.014;0.232;2022-10-31T08:36:29;15.30;72.40
24668;DHT22;12793;48.014;0.232;2022-10-31T08:38:55;15.40;72.30
24668;DHT22;12793;48.014;0.232;2022-10-31T08:41:20;15.40;72.20
24668;DHT22;12793;48.014;0.232;2022-10-31T08:43:46;15.50;72.30
24668;DHT22;12793;48.014;0.232;2022-10-31T08:46:12;15.50;72.30
24668;DHT22;12793;48.014;0.232;2022-10-31T08:48:37;15.60;72.30
24668;DHT22;12793;48.014;0.232;2022-10-31T08:51:03;15.70;72.20
24668;DHT22;12793;48.014;0.232;2022-10-31T08:53:29;15.70;72.20
24668;DHT22;12793;48.014;0.232;2022-10-31T08:55:55;15.80;72.10
24668;DHT22;12793;48.014;0.232;2022-10-31T08:58:20;15.90;72.10
24668;DHT22;12793;48.014;0.232;2022-10-31T09:00:47;16.00;72.10
24668;DHT22;12793;48.014;0.232;2022-10-31T09:03:14;16.10;72.10
24668;DHT22;12793;48.014;0.232;2022-10-31T09:05:40;16.20;72.20
24668;DHT22;12793;48.014;0.232;2022-10-31T09:08:06;16.30;72.10
24668;DHT22;12793;48.014;0.232;2022-10-31T09:10:33;16.40;72.00
24668;DHT22;12793;48.014;0.232;2022-10-31T09:13:00;16.40;72.00
24668;DHT22;12793;48.014;0.232;2022-10-31T09:15:26;16.50;71.90
24668;DHT22;12793;48.014;0.232;2022-10-31T09:17:52;16.60;72.70
24668;DHT22;12793;48.014;0.232;2022-10-31T09:20:18;16.70;72.50
24668;DHT22;12793;48.014;0.232;2022-10-31T09:22:44;16.80;73.10
24668;DHT22;12793;48.014;0.232;2022-10-31T09:25:10;17.00;73.10
24668;DHT22;12793;48.014;0.232;2022-10-31T09:27:36;17.10;72.60
24668;DHT22;12793;48.014;0.232;2022-10-31T09:30:02;17.20;73.50
24668;DHT22;12793;48.014;0.232;2022-10-31T09:32:27;17.30;73.20
24668;DHT22;12793;48.014;0.232;2022-10-31T09:34:53;17.40;72.70
24668;DHT22;12793;48.014;0.232;2022-10-31T09:37:18;17.40;72.10
24668;DHT22;12793;48.014;0.232;2022-10-31T09:39:44;17.50;71.80
24668;DHT22;12793;48.014;0.232;2022-10-31T09:52:23;17.90;70.00
24668;DHT22;12793;48.014;0.232;2022-10-31T09:55:02;17.90;69.60
24668;DHT22;12793;48.014;0.232;2022-10-31T09:57:38;18.00;69.70
24668;DHT22;12793;48.014;0.232;2022-10-31T10:00:06;18.00;70.20
24668;DHT22;12793;48.014;0.232;2022-10-31T10:04:59;18.20;69.70
24668;DHT22;12793;48.014;0.232;2022-10-31T10:13:48;18.40;69.10
24668;DHT22;12793;48.014;0.232;2022-10-31T10:25:57;19.00;67.90
24668;DHT22;12793;48.014;0.232;2022-10-31T10:28:31;19.00;68.20
24668;DHT22;12793;48.014;0.232;2022-10-31T10:31:05;19.10;68.30
24668;DHT22;12793;48.014;0.232;2022-10-31T10:33:33;19.20;67.80
24668;DHT22;12793;48.014;0.232;2022-10-31T10:36:02;19.30;67.40
24668;DHT22;12793;48.014;0.232;2022-10-31T10:40:54;19.30;67.00
24668;DHT22;12793;48.014;0.232;2022-10-31T10:51:43;19.40;67.10
24668;DHT22;12793;48.014;0.232;2022-10-31T10:59:43;19.60;66.50
24668;DHT22;12793;48.014;0.232;2022-10-31T11:02:19;19.70;66.40
24668;DHT22;12793;48.014;0.232;2022-10-31T11:04:47;19.70;66.20
24668;DHT22;12793;48.014;0.232;2022-10-31T11:07:14;19.80;66.30
24668;DHT22;12793;48.014;0.232;2022-10-31T11:09:42;19.80;66.10
24668;DHT22;12793;48.014;0.232;2022-10-31T11:12:08;19.80;66.00
24668;DHT22;12793;48.014;0.232;2022-10-31T11:14:42;19.80;65.90
24668;DHT22;12793;48.014;0.232;2022-10-31T11:17:10;19.80;65.60
24668;DHT22;12793;48.014;0.232;2022-10-31T11:19:36;19.80;65.80
24668;DHT22;12793;48.014;0.232;2022-10-31T11:22:06;19.80;65.80
24668;DHT22;12793;48.014;0.232;2022-10-31T11:24:35;19.80;65.80
24668;DHT22;12793;48.014;0.232;2022-10-31T11:27:11;19.80;65.80
24668;DHT22;12793;48.014;0.232;2022-10-31T11:29:38;19.90;66.00
24668;DHT22;12793;48.014;0.232;2022-10-31T11:32:03;20.00;66.00
24668;DHT22;12793;48.014;0.232;2022-10-31T11:34:30;20.20;65.70
24668;DHT22;12793;48.014;0.232;2022-10-31T11:37:04;20.50;65.90
24668;DHT22;12793;48.014;0.232;2022-10-31T11:39:34;21.00;65.80
24668;DHT22;12793;48.014;0.232;2022-10-31T11:42:06;21.50;64.70
24668;DHT22;12793;48.014;0.232;2022-10-31T11:44:31;21.90;63.80
24668;DHT22;12793;48.014;0.232;2022-10-31T11:46:58;22.40;63.20
24668;DHT22;12793;48.014;0.232;2022-10-31T11:49:38;22.80;61.50
24668;DHT22;12793;48.014;0.232;2022-10-31T11:52:08;23.20;59.70
24668;DHT22;12793;48.014;0.232;2022-10-31T11:54:45;23.50;58.60
24668;DHT22;12793;48.014;0.232;2022-10-31T11:59:57;23.80;57.50
24668;DHT22;12793;48.014;0.232;2022-10-31T12:02:23;24.00;57.20
24668;DHT22;12793;48.014;0.232;2022-10-31T12:04:51;24.10;56.60
24668;DHT22;12793;48.014;0.232;2022-10-31T12:07:17;24.30;56.20
24668;DHT22;12793;48.014;0.232;2022-10-31T12:09:43;24.40;56.30
24668;DHT22;12793;48.014;0.232;2022-10-31T12:12:22;24.50;55.80
24668;DHT22;12793;48.014;0.232;2022-10-31T12:35:21;25.40;52.80
24668;DHT22;12793;48.014;0.232;2022-10-31T12:45:42;25.00;53.10
24668;DHT22;12793;48.014;0.232;2022-10-31T12:48:16;24.90;53.10
24668;DHT22;12793;48.014;0.232;2022-10-31T12:56:02;24.80;53.80
24668;DHT22;12793;48.014;0.232;2022-10-31T12:58:34;24.80;53.10
24668;DHT22;12793;48.014;0.232;2022-10-31T13:01:03;24.80;53.50
24668;DHT22;12793;48.014;0.232;2022-10-31T13:03:33;24.70;53.50
24668;DHT22;12793;48.014;0.232;2022-10-31T13:06:13;24.60;53.50
24668;DHT22;12793;48.014;0.232;2022-10-31T13:08:43;24.60;53.50
24668;DHT22;12793;48.014;0.232;2022-10-31T13:16:48;24.60;53.40
24668;DHT22;12793;48.014;0.232;2022-10-31T13:19:18;24.70;53.60
24668;DHT22;12793;48.014;0.232;2022-10-31T13:21:49;24.80;53.30
24668;DHT22;12793;48.014;0.232;2022-10-31T13:24:18;24.80;52.60
24668;DHT22;12793;48.014;0.232;2022-10-31T13:26:56;24.70;52.30
24668;DHT22;12793;48.014;0.232;2022-10-31T13:29:30;24.70;51.70
24668;DHT22;12793;48.014;0.232;2022-10-31T13:31:57;24.60;51.90
24668;DHT22;12793;48.014;0.232;2022-10-31T13:34:24;24.50;52.10
24668;DHT22;12793;48.014;0.232;2022-10-31T13:36:53;24.50;52.10
24668;DHT22;12793;48.014;0.232;2022-10-31T13:42:19;24.50;52.30
24668;DHT22;12793;48.014;0.232;2022-10-31T13:44:46;24.40;52.60
24668;DHT22;12793;48.014;0.232;2022-10-31T13:47:28;24.40;53.00
24668;DHT22;12793;48.014;0.232;2022-10-31T13:50:14;24.40;52.70
24668;DHT22;12793;48.014;0.232;2022-10-31T13:52:43;24.50;52.80
24668;DHT22;12793;48.014;0.232;2022-10-31T13:55:33;24.50;52.50
24668;DHT22;12793;48.014;0.232;2022-10-31T13:57:54;24.60;52.80
24668;DHT22;12793;48.014;0.232;2022-10-31T14:02:46;24.50;52.70
24668;DHT22;12793;48.014;0.232;2022-10-31T14:07:42;24.20;53.00
24668;DHT22;12793;48.014;0.232;2022-10-31T14:13:30;24.00;53.10
24668;DHT22;12793;48.014;0.232;2022-10-31T14:15:57;23.70;53.10
24668;DHT22;12793;48.014;0.232;2022-10-31T14:18:30;23.50;53.30
24668;DHT22;12793;48.014;0.232;2022-10-31T14:20:56;23.30;53.70
24668;DHT22;12793;48.014;0.232;2022-10-31T14:28:44;23.00;54.70
24668;DHT22;12793;48.014;0.232;2022-10-31T14:31:33;22.90;54.90
24668;DHT22;12793;48.014;0.232;2022-10-31T14:47:07;22.00;56.30
24668;DHT22;12793;48.014;0.232;2022-10-31T14:52:11;21.70;57.10
24668;DHT22;12793;48.014;0.232;2022-10-31T14:54:39;21.60;57.70
24668;DHT22;12793;48.014;0.232;2022-10-31T15:00:03;21.30;58.30
24668;DHT22;12793;48.014;0.232;2022-10-31T15:02:43;21.20;58.80
24668;DHT22;12793;48.014;0.232;2022-10-31T15:05:11;21.10;59.20
24668;DHT22;12793;48.014;0.232;2022-10-31T15:07:48;20.90;59.70
24668;DHT22;12793;48.014;0.232;2022-10-31T15:10:21;20.70;61.50
24668;DHT22;12793;48.014;0.232;2022-10-31T15:12:47;20.50;62.90
24668;DHT22;12793;48.014;0.232;2022-10-31T15:15:13;20.20;63.60
24668;DHT22;12793;48.014;0.232;2022-10-31T15:17:44;19.90;64.30
24668;DHT22;12793;48.014;0.232;2022-10-31T15:20:17;19.60;64.70
24668;DHT22;12793;48.014;0.232;2022-10-31T15:22:43;19.40;65.70
24668;DHT22;12793;48.014;0.232;2022-10-31T15:25:42;19.20;65.90
24668;DHT22;12793;48.014;0.232;2022-10-31T15:28:00;19.10;66.40
24668;DHT22;12793;48.014;0.232;2022-10-31T15:30:27;18.90;67.00
24668;DHT22;12793;48.014;0.232;2022-10-31T15:32:53;18.70;67.60
24668;DHT22;12793;48.014;0.232;2022-10-31T15:35:26;18.70;68.00
24668;DHT22;12793;48.014;0.232;2022-10-31T15:37:52;18.50;68.30
24668;DHT22;12793;48.014;0.232;2022-10-31T15:40:19;18.50;69.10
24668;DHT22;12793;48.014;0.232;2022-10-31T15:42:50;18.40;69.40
24668;DHT22;12793;48.014;0.232;2022-10-31T15:45:21;18.30;69.50
24668;DHT22;12793;48.014;0.232;2022-10-31T15:47:52;18.20;70.00
24668;DHT22;12793;48.014;0.232;2022-10-31T15:50:20;18.10;70.30
24668;DHT22;12793;48.014;0.232;2022-10-31T15:52:47;18.10;70.90
24668;DHT22;12793;48.014;0.232;2022-10-31T15:57:42;18.00;71.40
24668;DHT22;12793;48.014;0.232;2022-10-31T16:02:46;18.00;71.80
24668;DHT22;12793;48.014;0.232;2022-10-31T16:05:16;18.00;71.80
24668;DHT22;12793;48.014;0.232;2022-10-31T16:07:51;18.00;72.00
24668;DHT22;12793;48.014;0.232;2022-10-31T16:10:24;17.90;72.10
24668;DHT22;12793;48.014;0.232;2022-10-31T16:12:50;17.90;72.70
24668;DHT22;12793;48.014;0.232;2022-10-31T16:15:16;17.90;72.70
24668;DHT22;12793;48.014;0.232;2022-10-31T16:17:43;17.80;72.90
24668;DHT22;12793;48.014;0.232;2022-10-31T16:20:47;17.80;73.20
24668;DHT22;12793;48.014;0.232;2022-10-31T16:23:02;17.80;73.70
24668;DHT22;12793;48.014;0.232;2022-10-31T16:25:37;17.70;73.80
24668;DHT22;12793;48.014;0.232;2022-10-31T16:28:04;17.80;73.60
24668;DHT22;12793;48.014;0.232;2022-10-31T16:32:57;17.80;73.70
24668;DHT22;12793;48.014;0.232;2022-10-31T16:35:42;17.80;73.80
24668;DHT22;12793;48.014;0.232;2022-10-31T16:38:07;17.80;74.00
24668;DHT22;12793;48.014;0.232;2022-10-31T16:40:34;17.70;73.90
24668;DHT22;12793;48.014;0.232;2022-10-31T16:43:02;17.80;74.10
24668;DHT22;12793;48.014;0.232;2022-10-31T16:45:29;17.80;73.90
24668;DHT22;12793;48.014;0.232;2022-10-31T16:48:01;17.70;73.70
24668;DHT22;12793;48.014;0.232;2022-10-31T16:50:27;17.70;74.10
24668;DHT22;12793;48.014;0.232;2022-10-31T16:52:53;17.70;74.30
24668;DHT22;12793;48.014;0.232;2022-10-31T16:55:19;17.70;74.40
24668;DHT22;12793;48.014;0.232;2022-10-31T16:57:48;17.80;74.50
24668;DHT22;12793;48.014;0.232;2022-10-31T17:00:18;17.70;74.20
24668;DHT22;12793;48.014;0.232;2022-10-31T17:02:45;17.70;74.50
24668;DHT22;12793;48.014;0.232;2022-10-31T17:05:11;17.70;74.70
24668;DHT22;12793;48.014;0.232;2022-10-31T17:07:37;17.70;74.50
24668;DHT22;12793;48.014;0.232;2022-10-31T17:10:03;17.70;74.50
24668;DHT22;12793;48.014;0.232;2022-10-31T17:12:29;17.60;74.30
24668;DHT22;12793;48.014;0.232;2022-10-31T17:14:54;17.70;74.70
24668;DHT22;12793;48.014;0.232;2022-10-31T17:17:20;17.60;74.60
24668;DHT22;12793;48.014;0.232;2022-10-31T17:19:46;17.60;74.80
24668;DHT22;12793;48.014;0.232;2022-10-31T17:22:12;17.60;74.60
24668;DHT22;12793;48.014;0.232;2022-10-31T17:24:38;17.60;74.90
24668;DHT22;12793;48.014;0.232;2022-10-31T17:27:04;17.60;74.70
24668;DHT22;12793;48.014;0.232;2022-10-31T17:29:29;17.50;75.00
24668;DHT22;12793;48.014;0.232;2022-10-31T17:31:55;17.50;74.90
24668;DHT22;12793;48.014;0.232;2022-10-31T17:34:20;17.50;75.40
24668;DHT22;12793;48.014;0.232;2022-10-31T17:36:49;17.50;75.60
24668;DHT22;12793;48.014;0.232;2022-10-31T17:39:15;17.40;75.50
24668;DHT22;12793;48.014;0.232;2022-10-31T17:41:41;17.40;75.90
24668;DHT22;12793;48.014;0.232;2022-10-31T17:44:08;17.40;76.00
24668;DHT22;12793;48.014;0.232;2022-10-31T17:46:34;17.40;76.10
24668;DHT22;12793;48.014;0.232;2022-10-31T17:48:59;17.40;76.20
24668;DHT22;12793;48.014;0.232;2022-10-31T17:51:26;17.40;76.40
24668;DHT22;12793;48.014;0.232;2022-10-31T17:53:51;17.40;76.30
24668;DHT22;12793;48.014;0.232;2022-10-31T17:56:17;17.40;76.60
24668;DHT22;12793;48.014;0.232;2022-10-31T17:58:42;17.40;76.50
24668;DHT22;12793;48.014;0.232;2022-10-31T18:01:09;17.40;76.50
24668;DHT22;12793;48.014;0.232;2022-10-31T18:03:35;17.40;77.00
24668;DHT22;12793;48.014;0.232;2022-10-31T18:06:00;17.40;76.70
24668;DHT22;12793;48.014;0.232;2022-10-31T18:08:26;17.30;76.80
24668;DHT22;12793;48.014;0.232;2022-10-31T18:10:52;17.30;76.80